KEWR

Newark Liberty International Airport

Newark, New Jersey, USA
KEWR 171947Z 1720/1824 28022G34KT P6SM BKN060 FM180000 28018G28KT P6SM SCT060 FM181000 32014G22KT P6SM FEW060 FM182200 30010KT P6SM FEW060
Issued Valid From Valid To
Oct-17 @ 19:47 UTC
(an hour ago)
Oct-17 @ 20:00 UTC
(54 minutes ago)
Oct-19 @ 00:00 UTC
(-1 days ago)
Oct-17 @ 20:00 to Oct-18 @ 00:00
KEWR 171947Z 1720/1824 28022G34KT P6SM BKN060
Wind Visibility Clouds
280° at 22 knots
 Gusting to 34 knots
Greater than 6 miles
  • Broken at 6,000' AGL
From Oct-18 @ 00:00 to Oct-18 @ 10:00
FM180000 28018G28KT P6SM SCT060
Wind Visibility Clouds
280° at 18 knots
 Gusting to 28 knots
Greater than 6 miles
  • Scattered at 6,000' AGL
From Oct-18 @ 10:00 to Oct-18 @ 22:00
FM181000 32014G22KT P6SM FEW060
Wind Visibility Clouds
320° at 14 knots
 Gusting to 22 knots
Greater than 6 miles
  • Few at 6,000' AGL
From Oct-18 @ 22:00 to Oct-19 @ 00:00
FM182200 30010KT P6SM FEW060
Wind Visibility Clouds
300° at 10 knots Greater than 6 miles
  • Few at 6,000' AGL
KEWR 171947Z 1720/1824 28022G34KT P6SM BKN060 FM180000 28018G28KT P6SM SCT060 FM181000 32014G22KT P6SM FEW060 FM182200 30010KT P6SM FEW060
Issued Oct-17 @ 19:47 UTC
(an hour ago)
Valid From Oct-17 @ 20:00 UTC
(54 minutes ago)
Valid To Oct-19 @ 00:00 UTC
(-1 days ago)
Oct-17 @ 20:00 - Oct-18 @ 00:00
Wind Visibility
280° at 22 knots
 Gusting to 34 knots
Greater than 6 miles
Clouds
  • Broken at 6,000' AGL
From Oct-18 @ 00:00 - Oct-18 @ 10:00
Wind Visibility
280° at 18 knots
 Gusting to 28 knots
Greater than 6 miles
Clouds
  • Scattered at 6,000' AGL
From Oct-18 @ 10:00 - Oct-18 @ 22:00
Wind Visibility
320° at 14 knots
 Gusting to 22 knots
Greater than 6 miles
Clouds
  • Few at 6,000' AGL
From Oct-18 @ 22:00 - Oct-19 @ 00:00
Wind Visibility
300° at 10 knots Greater than 6 miles
Clouds
  • Few at 6,000' AGL